createdAt,value
2022-12-23T00:01:14.040Z,6.90
2022-12-23T00:03:41.158Z,6.90
2022-12-23T00:06:15.099Z,6.80
2022-12-23T00:08:43.918Z,6.90
2022-12-23T00:11:20.111Z,6.80
2022-12-23T00:14:08.061Z,6.80
2022-12-23T00:16:38.650Z,6.90
2022-12-23T00:19:07.293Z,6.80
2022-12-23T00:21:35.875Z,6.80
2022-12-23T00:24:02.892Z,6.90
2022-12-23T00:26:30.474Z,6.90
2022-12-23T00:28:58.862Z,6.90
2022-12-23T00:31:26.161Z,6.80
2022-12-23T00:33:56.015Z,6.90
2022-12-23T00:36:29.981Z,6.90
2022-12-23T00:39:17.594Z,6.90
2022-12-23T00:42:04.916Z,6.90
2022-12-23T00:44:32.139Z,6.90
2022-12-23T00:46:58.937Z,6.80
2022-12-23T00:49:43.864Z,6.90
2022-12-23T00:52:13.710Z,6.90
2022-12-23T00:54:41.913Z,6.90
2022-12-23T00:57:11.456Z,6.90
2022-12-23T00:59:38.462Z,6.90
2022-12-23T01:02:23.820Z,6.90
2022-12-23T01:05:10.986Z,6.90
2022-12-23T01:07:38.296Z,7.00
2022-12-23T01:10:05.941Z,7.00
2022-12-23T01:12:32.782Z,7.00
2022-12-23T01:14:59.642Z,7.10
2022-12-23T01:17:27.388Z,7.10
2022-12-23T01:19:54.243Z,7.10
2022-12-23T01:22:21.315Z,7.20
2022-12-23T01:24:48.114Z,7.20
2022-12-23T01:27:14.998Z,7.30
2022-12-23T01:29:41.826Z,7.30
2022-12-23T01:32:09.112Z,7.30
2022-12-23T01:34:37.692Z,7.40
2022-12-23T01:37:05.601Z,7.40
2022-12-23T01:39:32.784Z,7.40
2022-12-23T01:42:18.231Z,7.40
2022-12-23T01:44:51.597Z,7.50
2022-12-23T01:47:46.961Z,7.50
2022-12-23T01:50:21.889Z,7.60
2022-12-23T01:53:11.516Z,7.70
2022-12-23T01:55:55.491Z,7.80
2022-12-23T01:58:38.756Z,7.80
2022-12-23T02:01:26.368Z,7.90
2022-12-23T02:03:59.397Z,8.00
2022-12-23T02:06:52.598Z,8.10
2022-12-23T02:09:21.086Z,8.10
2022-12-23T02:12:21.434Z,8.20
2022-12-23T02:15:09.888Z,8.20
2022-12-23T02:17:48.488Z,8.30
2022-12-23T02:20:35.819Z,8.40
2022-12-23T02:23:23.721Z,8.30
2022-12-23T02:26:15.323Z,8.40
2022-12-23T02:29:18.697Z,8.50
2022-12-23T02:32:01.849Z,8.50
2022-12-23T02:34:54.323Z,8.60
2022-12-23T02:37:42.300Z,8.60
2022-12-23T02:40:33.436Z,8.50
2022-12-23T02:43:16.156Z,8.50
2022-12-23T02:46:07.605Z,8.50
2022-12-23T02:48:41.525Z,8.60
2022-12-23T02:51:12.184Z,8.70
2022-12-23T02:53:49.067Z,8.70
2022-12-23T02:56:19.526Z,8.70
2022-12-23T02:59:17.726Z,8.70
2022-12-23T03:01:45.792Z,8.70
2022-12-23T03:04:15.276Z,8.70
2022-12-23T03:06:46.739Z,8.80
2022-12-23T03:09:30.711Z,8.70
2022-12-23T03:12:09.602Z,8.70
2022-12-23T03:15:13.434Z,8.80
2022-12-23T03:18:01.286Z,8.80
2022-12-23T03:20:39.655Z,8.90
2022-12-23T03:23:25.741Z,8.90
2022-12-23T03:26:00.780Z,8.90
2022-12-23T03:28:40.291Z,8.90
2022-12-23T03:31:14.077Z,9.00
2022-12-23T03:33:45.368Z,8.90
2022-12-23T03:36:40.040Z,8.90
2022-12-23T03:39:13.501Z,9.00
2022-12-23T03:41:45.938Z,9.00
2022-12-23T03:44:18.334Z,9.00
2022-12-23T03:47:00.269Z,9.00
2022-12-23T03:49:48.987Z,9.00
2022-12-23T03:52:22.031Z,9.00
2022-12-23T03:55:02.650Z,9.00
2022-12-23T03:57:39.129Z,9.00
2022-12-23T04:00:07.037Z,9.10
2022-12-23T04:02:40.935Z,9.10
2022-12-23T04:05:27.765Z,9.10
2022-12-23T04:08:11.255Z,9.10
2022-12-23T04:10:38.206Z,9.10
2022-12-23T04:13:06.292Z,9.10
2022-12-23T04:15:33.292Z,9.10
2022-12-23T04:18:00.102Z,9.10
2022-12-23T04:20:28.724Z,9.10
2022-12-23T04:22:55.623Z,9.10
2022-12-23T04:25:22.456Z,9.10
2022-12-23T04:27:49.254Z,9.10
2022-12-23T04:30:16.562Z,9.20
2022-12-23T04:32:43.579Z,9.20
2022-12-23T04:35:17.899Z,9.20
2022-12-23T04:37:45.506Z,9.20
2022-12-23T04:40:12.716Z,9.20
2022-12-23T04:42:39.599Z,9.30
2022-12-23T04:45:07.358Z,9.30
2022-12-23T04:47:34.348Z,9.30
2022-12-23T04:50:01.920Z,9.30
2022-12-23T04:52:28.746Z,9.30
2022-12-23T04:54:55.713Z,9.30
2022-12-23T04:57:22.488Z,9.30
2022-12-23T04:59:49.319Z,9.30
2022-12-23T05:02:16.343Z,9.30
2022-12-23T05:04:43.499Z,9.20
2022-12-23T05:07:10.595Z,9.30
2022-12-23T05:09:37.867Z,9.20
2022-12-23T05:12:04.701Z,9.20
2022-12-23T05:14:32.128Z,9.20
2022-12-23T05:17:03.746Z,9.20
2022-12-23T05:19:34.115Z,9.20
2022-12-23T05:22:01.351Z,9.20
2022-12-23T05:24:28.189Z,9.20
2022-12-23T05:27:00.172Z,9.20
2022-12-23T05:29:28.491Z,9.20
2022-12-23T05:31:55.563Z,9.20
2022-12-23T05:34:22.450Z,9.20
2022-12-23T05:36:50.397Z,9.20
2022-12-23T05:39:25.474Z,9.20
2022-12-23T05:41:58.068Z,9.20
2022-12-23T05:44:24.908Z,9.20
2022-12-23T05:46:51.829Z,9.20
2022-12-23T05:49:18.755Z,9.20
2022-12-23T05:51:45.594Z,9.20
2022-12-23T05:54:15.608Z,9.10
2022-12-23T05:56:42.470Z,9.20
2022-12-23T05:59:09.583Z,9.20
2022-12-23T06:01:36.678Z,9.20
2022-12-23T06:04:03.938Z,9.10
2022-12-23T06:06:30.970Z,9.10
2022-12-23T06:09:00.145Z,9.10
2022-12-23T06:11:28.975Z,9.10
2022-12-23T06:13:55.797Z,9.10
2022-12-23T06:16:22.805Z,9.20
2022-12-23T06:18:49.830Z,9.10
2022-12-23T06:21:16.665Z,9.10
2022-12-23T06:23:44.251Z,9.10
2022-12-23T06:26:11.826Z,9.10
2022-12-23T06:28:38.665Z,9.10
2022-12-23T06:31:05.658Z,9.00
2022-12-23T06:33:33.130Z,9.00
2022-12-23T06:35:59.984Z,9.10
2022-12-23T06:38:26.812Z,9.10
2022-12-23T06:40:53.817Z,9.00
2022-12-23T06:43:20.763Z,9.00
2022-12-23T06:45:49.786Z,9.00
2022-12-23T06:48:17.726Z,9.00
2022-12-23T06:50:46.713Z,9.00
2022-12-23T06:53:13.714Z,9.10
2022-12-23T06:55:40.617Z,9.10
2022-12-23T06:58:07.630Z,9.10
2022-12-23T07:00:35.525Z,9.10
2022-12-23T07:03:02.780Z,9.10
2022-12-23T07:05:36.732Z,9.10
2022-12-23T07:08:04.749Z,9.10
2022-12-23T07:10:31.821Z,9.10
2022-12-23T07:12:59.850Z,9.10
2022-12-23T07:15:27.095Z,9.10
2022-12-23T07:17:55.297Z,9.10
2022-12-23T07:20:22.258Z,9.00
2022-12-23T07:22:50.348Z,9.00
2022-12-23T07:25:17.354Z,9.00
2022-12-23T07:27:44.798Z,9.00
2022-12-23T07:30:12.676Z,9.00
2022-12-23T07:32:39.948Z,9.00
2022-12-23T07:35:07.221Z,9.00
2022-12-23T07:37:35.009Z,9.00
2022-12-23T07:40:08.292Z,9.00
2022-12-23T07:42:45.559Z,9.00
2022-12-23T07:45:13.986Z,9.00
2022-12-23T07:47:43.141Z,9.00
2022-12-23T07:50:10.480Z,9.00
2022-12-23T07:52:42.672Z,9.00
2022-12-23T07:55:09.787Z,9.00
2022-12-23T07:57:38.419Z,9.00
2022-12-23T08:00:07.408Z,9.00
2022-12-23T08:02:39.660Z,8.90
2022-12-23T08:05:07.402Z,8.90
2022-12-23T08:07:36.759Z,8.90
2022-12-23T08:10:06.938Z,9.00
2022-12-23T08:12:35.011Z,9.00
2022-12-23T08:15:01.904Z,9.00
2022-12-23T08:17:31.046Z,9.10
2022-12-23T08:20:04.279Z,9.10
2022-12-23T08:22:32.055Z,9.10
2022-12-23T08:24:59.844Z,9.10
2022-12-23T08:27:26.895Z,9.20
2022-12-23T08:29:54.058Z,9.20
2022-12-23T08:32:20.954Z,9.20
2022-12-23T08:34:49.960Z,9.20
2022-12-23T08:37:41.838Z,9.30
2022-12-23T08:40:09.331Z,9.30
2022-12-23T08:42:36.689Z,9.30
2022-12-23T08:45:03.946Z,9.30
2022-12-23T08:47:30.805Z,9.30
2022-12-23T08:49:57.762Z,9.30
2022-12-23T08:52:24.639Z,9.40
2022-12-23T08:54:51.629Z,9.40
2022-12-23T08:57:18.745Z,9.40
2022-12-23T09:00:47.904Z,9.40
2022-12-23T09:03:16.946Z,9.50
2022-12-23T09:05:44.016Z,9.50
2022-12-23T09:08:10.969Z,9.50
2022-12-23T09:10:44.734Z,9.50
2022-12-23T09:13:17.918Z,9.50
2022-12-23T09:15:49.579Z,9.60
2022-12-23T09:18:16.919Z,9.60
2022-12-23T09:20:43.980Z,9.70
2022-12-23T09:23:10.938Z,9.70
2022-12-23T09:25:38.723Z,9.70
2022-12-23T09:28:08.308Z,9.70
2022-12-23T09:30:36.037Z,9.80
2022-12-23T09:33:04.020Z,9.80
2022-12-23T09:35:31.042Z,9.90
2022-12-23T09:37:58.576Z,10.00
2022-12-23T09:40:29.027Z,10.00
2022-12-23T09:43:27.481Z,10.00
2022-12-23T09:46:07.079Z,10.00
2022-12-23T09:48:39.364Z,10.00
2022-12-23T09:51:07.343Z,10.00
2022-12-23T09:53:56.117Z,10.00
2022-12-23T09:56:34.359Z,10.00
2022-12-23T09:59:14.645Z,10.00
2022-12-23T10:01:54.483Z,10.00
2022-12-23T10:04:55.363Z,10.00
2022-12-23T10:07:59.576Z,10.00
2022-12-23T10:10:30.687Z,10.00
2022-12-23T10:13:00.454Z,10.00
2022-12-23T10:15:33.888Z,10.00
2022-12-23T10:18:07.653Z,10.00
2022-12-23T10:20:44.822Z,10.00
2022-12-23T10:23:17.805Z,10.10
2022-12-23T10:25:54.045Z,10.00
2022-12-23T10:28:21.042Z,10.10
2022-12-23T10:31:30.978Z,10.10
2022-12-23T10:34:05.326Z,10.10
2022-12-23T10:37:03.384Z,10.10
2022-12-23T10:39:57.878Z,10.10
2022-12-23T10:42:42.457Z,10.10
2022-12-23T10:45:23.567Z,10.10
2022-12-23T10:48:26.143Z,10.10
2022-12-23T10:51:04.738Z,10.10
2022-12-23T10:53:40.182Z,10.10
2022-12-23T10:56:11.779Z,10.10
2022-12-23T10:58:43.509Z,10.20
2022-12-23T11:01:18.881Z,10.20
2022-12-23T11:04:17.217Z,10.20
2022-12-23T11:06:52.838Z,10.30
2022-12-23T11:09:37.471Z,10.30
2022-12-23T11:12:09.477Z,10.30
2022-12-23T11:14:36.423Z,10.30
2022-12-23T11:17:05.403Z,10.30
2022-12-23T11:19:32.675Z,10.30
2022-12-23T11:22:01.119Z,10.30
2022-12-23T11:24:39.678Z,10.30
2022-12-23T11:27:14.663Z,10.30
2022-12-23T11:29:48.227Z,10.30
2022-12-23T11:32:25.762Z,10.40
2022-12-23T11:34:54.288Z,10.40
2022-12-23T11:37:41.379Z,10.40
2022-12-23T11:40:21.985Z,10.40
2022-12-23T11:42:53.472Z,10.40
2022-12-23T11:45:26.174Z,10.40
2022-12-23T11:47:53.309Z,10.40
2022-12-23T11:50:24.253Z,10.40
2022-12-23T11:52:54.917Z,10.40
2022-12-23T11:55:29.266Z,10.40
2022-12-23T11:57:57.506Z,10.40
2022-12-23T12:00:39.380Z,10.40
2022-12-23T12:03:08.411Z,10.40
2022-12-23T12:05:38.761Z,10.40
2022-12-23T12:08:20.366Z,10.40
2022-12-23T12:10:52.621Z,10.40
2022-12-23T12:13:31.855Z,10.40
2022-12-23T12:16:30.077Z,10.40
2022-12-23T12:19:15.112Z,10.40
2022-12-23T12:21:44.753Z,10.40
2022-12-23T12:24:24.651Z,10.30
2022-12-23T12:26:57.179Z,10.30
2022-12-23T12:29:37.772Z,10.30
2022-12-23T12:32:32.917Z,10.30
2022-12-23T12:35:07.287Z,10.30
2022-12-23T12:37:47.264Z,10.30
2022-12-23T12:40:26.673Z,10.30
2022-12-23T12:43:01.940Z,10.30
2022-12-23T12:45:38.991Z,10.30
2022-12-23T12:48:40.236Z,10.30
2022-12-23T12:51:17.296Z,10.30
2022-12-23T12:54:19.467Z,10.30
2022-12-23T12:56:55.687Z,10.30
2022-12-23T12:59:28.920Z,10.30
2022-12-23T13:02:20.341Z,10.30
2022-12-23T13:05:03.149Z,10.30
2022-12-23T13:07:59.601Z,10.30
2022-12-23T13:10:49.818Z,10.30
2022-12-23T13:13:19.679Z,10.30
2022-12-23T13:15:50.924Z,10.20
2022-12-23T13:18:45.881Z,10.30
2022-12-23T13:21:47.942Z,10.20
2022-12-23T13:24:14.964Z,10.20
2022-12-23T13:27:13.691Z,10.20
2022-12-23T13:30:13.245Z,10.20
2022-12-23T13:33:09.539Z,10.20
2022-12-23T13:35:45.406Z,10.20
2022-12-23T13:38:33.509Z,10.20
2022-12-23T13:41:04.298Z,10.20
2022-12-23T13:43:46.485Z,10.20
2022-12-23T13:46:28.330Z,10.20
2022-12-23T13:49:05.040Z,10.20
2022-12-23T13:52:07.199Z,10.20
2022-12-23T13:54:53.728Z,10.20
2022-12-23T13:57:42.783Z,10.20
2022-12-23T14:00:18.670Z,10.20
2022-12-23T14:03:00.937Z,10.20
2022-12-23T14:05:30.247Z,10.10
2022-12-23T14:08:01.194Z,10.20
2022-12-23T14:10:29.046Z,10.10
2022-12-23T14:13:05.796Z,10.20
2022-12-23T14:16:02.273Z,10.20
2022-12-23T14:18:54.225Z,10.20
2022-12-23T14:21:34.312Z,10.20
2022-12-23T14:24:26.103Z,10.20
2022-12-23T14:27:29.248Z,10.20
2022-12-23T14:30:07.958Z,10.20
2022-12-23T14:32:58.765Z,10.20
2022-12-23T14:35:32.483Z,10.20
2022-12-23T14:38:21.540Z,10.20
2022-12-23T14:40:53.261Z,10.20
2022-12-23T14:43:23.382Z,10.20
2022-12-23T14:45:53.109Z,10.20
2022-12-23T14:49:16.198Z,10.20
2022-12-23T14:51:44.615Z,10.20
2022-12-23T14:54:14.601Z,10.20
2022-12-23T14:56:50.366Z,10.30
2022-12-23T14:59:39.235Z,10.20
2022-12-23T15:02:33.324Z,10.20
2022-12-23T15:05:01.603Z,10.20
2022-12-23T15:07:41.427Z,10.20
2022-12-23T15:10:13.855Z,10.20
2022-12-23T15:12:45.987Z,10.20
2022-12-23T15:15:16.949Z,10.20
2022-12-23T15:17:44.398Z,10.20
2022-12-23T15:20:12.408Z,10.20
2022-12-23T15:22:41.877Z,10.20
2022-12-23T15:25:26.370Z,10.20
2022-12-23T15:28:01.219Z,10.30
2022-12-23T15:30:36.392Z,10.30
2022-12-23T15:33:27.977Z,10.30
2022-12-23T15:35:55.878Z,10.30
2022-12-23T15:38:29.884Z,10.30
2022-12-23T15:41:03.135Z,10.30
2022-12-23T15:43:33.008Z,10.30
2022-12-23T15:46:28.712Z,10.40
2022-12-23T15:48:56.988Z,10.40
2022-12-23T15:51:58.267Z,10.40
2022-12-23T15:54:31.823Z,10.40
2022-12-23T15:57:02.282Z,10.50
2022-12-23T15:59:37.580Z,10.50
2022-12-23T16:05:30.425Z,10.60
2022-12-23T16:08:09.846Z,10.60
2022-12-23T16:10:37.516Z,10.60
2022-12-23T16:13:04.491Z,10.70
2022-12-23T16:15:33.078Z,10.70
2022-12-23T16:18:19.089Z,10.70
2022-12-23T16:20:59.539Z,10.70
2022-12-23T16:23:30.271Z,10.70
2022-12-23T16:26:02.479Z,10.70
2022-12-23T16:28:48.142Z,10.80
2022-12-23T16:31:18.506Z,10.70
2022-12-23T16:33:50.319Z,10.80
2022-12-23T16:36:26.399Z,10.80
2022-12-23T16:38:59.242Z,10.80
2022-12-23T16:41:26.468Z,10.80
2022-12-23T16:43:54.488Z,10.80
2022-12-23T16:46:23.491Z,10.90
2022-12-23T16:49:00.696Z,10.80
2022-12-23T16:51:30.457Z,10.90
2022-12-23T16:53:58.279Z,10.90
2022-12-23T16:56:29.926Z,10.90
2022-12-23T16:58:58.760Z,10.90
2022-12-23T17:01:35.223Z,10.90
2022-12-23T17:04:02.390Z,10.90
2022-12-23T17:06:29.632Z,10.80
2022-12-23T17:08:59.557Z,10.80
2022-12-23T17:11:42.866Z,10.80
2022-12-23T17:14:35.581Z,10.90
2022-12-23T17:17:04.330Z,10.90
2022-12-23T17:19:32.946Z,10.90
2022-12-23T17:22:02.752Z,10.90
2022-12-23T17:24:30.211Z,10.90
2022-12-23T17:26:57.894Z,10.90
2022-12-23T17:29:26.283Z,10.90
2022-12-23T17:31:53.406Z,10.90
2022-12-23T17:34:22.420Z,10.80
2022-12-23T17:36:51.003Z,10.90
2022-12-23T17:39:19.089Z,10.90
2022-12-23T17:41:48.247Z,10.90
2022-12-23T17:44:16.920Z,10.90
2022-12-23T17:46:45.273Z,10.90
2022-12-23T17:49:12.550Z,10.90
2022-12-23T17:51:40.730Z,10.90
2022-12-23T17:54:24.734Z,10.90
2022-12-23T17:56:51.702Z,10.90
2022-12-23T17:59:21.523Z,10.90
2022-12-23T18:01:48.902Z,10.90
2022-12-23T18:04:16.015Z,10.90
2022-12-23T18:06:42.987Z,10.90
2022-12-23T18:09:09.894Z,10.90
2022-12-23T18:11:41.687Z,10.90
2022-12-23T18:14:19.897Z,10.90
2022-12-23T18:16:47.892Z,10.90
2022-12-23T18:19:18.547Z,11.00
2022-12-23T18:21:45.841Z,11.00
2022-12-23T18:24:12.861Z,11.00
2022-12-23T18:26:40.074Z,11.00
2022-12-23T18:29:07.270Z,11.00
2022-12-23T18:31:35.661Z,11.00
2022-12-23T18:34:02.821Z,11.00
2022-12-23T18:36:34.375Z,10.90
2022-12-23T18:39:01.516Z,10.90
2022-12-23T18:41:28.672Z,10.80
2022-12-23T18:43:55.603Z,10.80
2022-12-23T18:46:23.309Z,10.70
2022-12-23T18:48:51.647Z,10.70
2022-12-23T18:51:21.348Z,10.70
2022-12-23T18:53:48.898Z,10.70
2022-12-23T18:56:21.393Z,10.70
2022-12-23T18:58:48.493Z,10.60
2022-12-23T19:01:17.851Z,10.60
2022-12-23T19:03:45.391Z,10.50
2022-12-23T19:06:14.452Z,10.50
2022-12-23T19:08:45.362Z,10.50
2022-12-23T19:11:15.426Z,10.50
2022-12-23T19:13:45.258Z,10.50
2022-12-23T19:16:18.828Z,10.50
2022-12-23T19:18:46.956Z,10.50
2022-12-23T19:21:15.876Z,10.50
2022-12-23T19:23:43.932Z,10.50
2022-12-23T19:26:13.760Z,10.50
2022-12-23T19:28:42.241Z,10.50
2022-12-23T19:31:15.275Z,10.50
2022-12-23T19:33:45.514Z,10.50
2022-12-23T19:36:21.106Z,10.50
2022-12-23T19:38:48.291Z,10.50
2022-12-23T19:41:15.570Z,10.50
2022-12-23T19:43:44.675Z,10.50
2022-12-23T19:46:13.817Z,10.50
2022-12-23T19:48:41.941Z,10.50
2022-12-23T19:51:12.163Z,10.50
2022-12-23T19:53:40.884Z,10.40
2022-12-23T19:56:13.033Z,10.40
2022-12-23T19:58:41.809Z,10.40
2022-12-23T20:01:11.794Z,10.50
2022-12-23T20:03:41.418Z,10.50
2022-12-23T20:06:18.476Z,10.50
2022-12-23T20:08:45.666Z,10.50
2022-12-23T20:11:18.846Z,10.50
2022-12-23T20:13:46.981Z,10.50
2022-12-23T20:16:15.036Z,10.50
2022-12-23T20:18:44.415Z,10.40
2022-12-23T20:21:11.701Z,10.40
2022-12-23T20:23:38.839Z,10.40
2022-12-23T20:26:05.889Z,10.40
2022-12-23T20:28:37.150Z,10.30
2022-12-23T20:31:27.789Z,10.30
2022-12-23T20:33:55.118Z,10.30
2022-12-23T20:36:24.860Z,10.30
2022-12-23T20:38:52.986Z,10.30
2022-12-23T20:41:22.177Z,10.20
2022-12-23T20:44:23.349Z,10.20
2022-12-23T20:46:38.353Z,10.20
2022-12-23T20:49:06.902Z,10.10
2022-12-23T20:51:34.691Z,10.10
2022-12-23T20:54:02.281Z,10.10
2022-12-23T20:56:30.908Z,10.00
2022-12-23T20:58:59.509Z,10.00
2022-12-23T21:01:28.328Z,10.00
2022-12-23T21:03:58.850Z,10.00
2022-12-23T21:06:30.295Z,10.00
2022-12-23T21:09:00.132Z,10.00
2022-12-23T21:11:32.326Z,9.90
2022-12-23T21:14:07.376Z,9.90
2022-12-23T21:16:37.261Z,10.00
2022-12-23T21:19:08.039Z,9.90
2022-12-23T21:21:35.465Z,9.90
2022-12-23T21:24:04.714Z,9.90
2022-12-23T21:26:34.041Z,9.90
2022-12-23T21:29:03.883Z,9.90
2022-12-23T21:31:32.748Z,9.90
2022-12-23T21:33:59.944Z,9.80
2022-12-23T21:36:31.132Z,9.80
2022-12-23T21:38:58.603Z,9.80
2022-12-23T21:41:28.227Z,9.80
2022-12-23T21:43:59.673Z,9.80
2022-12-23T21:46:29.396Z,9.80
2022-12-23T21:48:57.877Z,9.80
2022-12-23T21:51:30.433Z,9.80
2022-12-23T21:54:03.036Z,9.80
2022-12-23T21:56:31.612Z,9.80
2022-12-23T21:59:02.002Z,9.80
2022-12-23T22:01:30.202Z,9.80
2022-12-23T22:03:57.809Z,9.80
2022-12-23T22:06:27.447Z,9.80
2022-12-23T22:08:55.445Z,9.80
2022-12-23T22:11:24.893Z,9.70
2022-12-23T22:13:52.745Z,9.70
2022-12-23T22:16:23.152Z,9.70
2022-12-23T22:18:51.617Z,9.70
2022-12-23T22:21:21.449Z,9.70
2022-12-23T22:23:51.687Z,9.70
2022-12-23T22:26:25.170Z,9.70
2022-12-23T22:28:55.185Z,9.60
2022-12-23T22:31:34.269Z,9.70
2022-12-23T22:34:01.532Z,9.60
2022-12-23T22:36:30.690Z,9.60
2022-12-23T22:39:00.583Z,9.60
2022-12-23T22:41:29.437Z,9.60
2022-12-23T22:43:57.824Z,9.50
2022-12-23T22:46:25.653Z,9.50
2022-12-23T22:48:53.297Z,9.50
2022-12-23T22:51:24.677Z,9.60
2022-12-23T22:53:51.718Z,9.60
2022-12-23T22:56:20.802Z,9.60
2022-12-23T22:58:50.295Z,9.50
2022-12-23T23:01:36.817Z,9.40
2022-12-23T23:04:04.536Z,9.30
2022-12-23T23:06:40.341Z,9.20
2022-12-23T23:09:13.993Z,9.20
2022-12-23T23:11:43.293Z,9.10
2022-12-23T23:14:11.104Z,9.00
2022-12-23T23:16:38.476Z,9.00
2022-12-23T23:19:06.891Z,8.90
2022-12-23T23:21:34.341Z,8.90
2022-12-23T23:24:04.195Z,8.80
2022-12-23T23:26:31.591Z,8.80
2022-12-23T23:28:58.498Z,8.70
2022-12-23T23:31:42.024Z,8.70
2022-12-23T23:34:10.243Z,8.70
2022-12-23T23:36:37.215Z,8.60
2022-12-23T23:39:04.449Z,8.60
2022-12-23T23:41:31.837Z,8.50
2022-12-23T23:43:59.584Z,8.50
2022-12-23T23:46:26.568Z,8.40
2022-12-23T23:48:54.045Z,8.40
2022-12-23T23:51:22.751Z,8.40
2022-12-23T23:53:49.692Z,8.40
2022-12-23T23:56:22.010Z,8.30
2022-12-23T23:58:51.926Z,8.30
